createdAt,value
2023-03-17T00:01:55.053Z,33.10
2023-03-17T00:04:26.256Z,35.25
2023-03-17T00:06:54.583Z,32.90
2023-03-17T00:09:22.326Z,31.73
2023-03-17T00:11:50.146Z,27.90
2023-03-17T00:14:17.822Z,27.75
2023-03-17T00:16:50.024Z,26.65
2023-03-17T00:19:37.165Z,29.40
2023-03-17T00:22:06.657Z,31.38
2023-03-17T00:24:33.612Z,27.60
2023-03-17T00:27:01.178Z,28.92
2023-03-17T00:29:28.354Z,29.48
2023-03-17T00:31:57.582Z,30.65
2023-03-17T00:34:24.611Z,29.40
2023-03-17T00:36:52.544Z,29.27
2023-03-17T00:39:19.757Z,28.40
2023-03-17T00:44:13.218Z,30.63
2023-03-17T00:46:41.494Z,33.40
2023-03-17T00:51:43.794Z,34.35
2023-03-17T00:54:11.919Z,38.08
2023-03-17T00:56:40.744Z,40.00
2023-03-17T00:59:26.018Z,38.35
2023-03-17T01:01:52.980Z,39.95
2023-03-17T01:04:20.063Z,43.00
2023-03-17T01:06:48.226Z,38.08
2023-03-17T01:09:18.578Z,40.10
2023-03-17T01:11:45.685Z,42.85
2023-03-17T01:14:12.842Z,44.33
2023-03-17T01:16:39.805Z,43.38
2023-03-17T01:19:06.928Z,40.33
2023-03-17T01:21:33.826Z,44.22
2023-03-17T01:24:00.669Z,42.45
2023-03-17T01:26:27.796Z,43.20
2023-03-17T01:28:54.817Z,42.95
2023-03-17T01:31:23.535Z,42.58
2023-03-17T01:33:51.336Z,43.90
2023-03-17T01:36:18.324Z,44.20
2023-03-17T01:38:48.581Z,43.95
2023-03-17T01:41:15.459Z,43.85
2023-03-17T01:43:42.621Z,46.75
2023-03-17T01:46:29.541Z,46.42
2023-03-17T01:48:56.220Z,42.83
2023-03-17T01:51:47.188Z,44.40
2023-03-17T01:54:24.257Z,44.55
2023-03-17T01:56:53.696Z,45.65
2023-03-17T01:59:25.872Z,47.78
2023-03-17T02:02:02.349Z,46.60
2023-03-17T02:04:29.711Z,47.10
2023-03-17T02:06:58.809Z,44.28
2023-03-17T02:09:27.684Z,45.08
2023-03-17T02:11:55.667Z,44.78
2023-03-17T02:14:22.514Z,46.28
2023-03-17T02:16:49.464Z,45.72
2023-03-17T02:19:17.123Z,43.83
2023-03-17T02:21:56.868Z,45.95
2023-03-17T02:24:27.532Z,46.05
2023-03-17T02:26:56.106Z,45.63
2023-03-17T02:29:23.846Z,50.05
2023-03-17T02:31:50.981Z,46.72
2023-03-17T02:34:18.303Z,45.80
2023-03-17T02:36:46.676Z,46.90
2023-03-17T02:39:13.768Z,45.63
2023-03-17T02:41:40.525Z,46.42
2023-03-17T02:44:07.330Z,48.00
2023-03-17T02:46:34.092Z,45.15
2023-03-17T02:49:02.055Z,44.70
2023-03-17T02:51:29.968Z,45.40
2023-03-17T02:53:57.142Z,45.15
2023-03-17T02:56:24.090Z,45.35
2023-03-17T02:58:51.804Z,45.65
2023-03-17T03:01:18.986Z,46.35
2023-03-17T03:03:45.938Z,45.45
2023-03-17T03:06:13.386Z,45.40
2023-03-17T03:08:40.642Z,44.25
2023-03-17T03:11:07.774Z,44.35
2023-03-17T03:13:34.540Z,44.17
2023-03-17T03:16:01.698Z,41.90
2023-03-17T03:18:28.579Z,44.58
2023-03-17T03:20:55.389Z,42.85
2023-03-17T03:23:22.198Z,44.35
2023-03-17T03:25:49.022Z,46.05
2023-03-17T03:28:16.294Z,45.58
2023-03-17T03:30:44.713Z,42.90
2023-03-17T03:33:13.344Z,43.83
2023-03-17T03:35:40.757Z,43.45
2023-03-17T03:38:08.355Z,42.30
2023-03-17T03:40:36.945Z,45.92
2023-03-17T03:43:16.313Z,43.78
2023-03-17T03:45:48.909Z,41.28
2023-03-17T03:48:16.240Z,44.25
2023-03-17T03:50:43.002Z,42.70
2023-03-17T03:53:10.166Z,42.15
2023-03-17T03:55:37.846Z,43.03
2023-03-17T03:58:04.970Z,40.13
2023-03-17T04:00:32.305Z,40.70
2023-03-17T04:02:59.995Z,41.42
2023-03-17T04:05:26.790Z,40.65
2023-03-17T04:07:54.219Z,38.08
2023-03-17T04:10:21.854Z,39.30
2023-03-17T04:12:48.589Z,37.28
2023-03-17T04:15:17.220Z,38.10
2023-03-17T04:17:44.465Z,35.63
2023-03-17T04:20:13.162Z,36.33
2023-03-17T04:22:41.793Z,38.30
2023-03-17T04:25:10.685Z,35.78
2023-03-17T04:27:37.947Z,35.70
2023-03-17T04:30:06.178Z,35.70
2023-03-17T04:32:33.694Z,36.90
2023-03-17T04:35:00.678Z,35.85
2023-03-17T04:37:27.883Z,34.28
2023-03-17T04:39:55.976Z,35.17
2023-03-17T04:42:23.204Z,34.10
2023-03-17T04:44:50.341Z,34.55
2023-03-17T04:47:17.232Z,33.65
2023-03-17T04:49:44.484Z,33.22
2023-03-17T04:52:11.571Z,33.67
2023-03-17T04:54:38.796Z,33.40
2023-03-17T04:57:06.044Z,33.00
2023-03-17T04:59:32.859Z,29.15
2023-03-17T05:01:59.756Z,31.60
2023-03-17T05:04:31.767Z,31.98
2023-03-17T05:06:59.657Z,32.20
2023-03-17T05:09:28.729Z,32.40
2023-03-17T05:11:56.177Z,34.13
2023-03-17T05:14:23.687Z,34.58
2023-03-17T05:16:51.154Z,36.83
2023-03-17T05:19:18.508Z,34.08
2023-03-17T05:21:45.707Z,34.25
2023-03-17T05:24:12.647Z,35.95
2023-03-17T05:26:40.101Z,64.05
2023-03-17T05:29:07.417Z,118.80
2023-03-17T05:31:34.571Z,86.68
2023-03-17T05:34:02.414Z,43.80
2023-03-17T05:36:29.691Z,46.05
2023-03-17T05:38:56.880Z,110.07
2023-03-17T05:41:23.680Z,36.05
2023-03-17T05:43:50.749Z,34.92
2023-03-17T05:46:20.237Z,35.55
2023-03-17T05:48:47.364Z,34.63
2023-03-17T05:51:14.601Z,37.38
2023-03-17T05:53:41.871Z,38.60
2023-03-17T05:56:09.384Z,40.03
2023-03-17T05:58:36.606Z,37.55
2023-03-17T06:01:03.450Z,35.80
2023-03-17T06:03:31.086Z,38.95
2023-03-17T06:05:58.352Z,38.47
2023-03-17T06:08:25.234Z,35.47
2023-03-17T06:10:52.688Z,35.85
2023-03-17T06:13:20.114Z,35.88
2023-03-17T06:15:51.836Z,31.27
2023-03-17T06:18:19.872Z,29.42
2023-03-17T06:20:47.296Z,41.17
2023-03-17T06:23:14.238Z,35.65
2023-03-17T06:25:41.635Z,33.45
2023-03-17T06:28:08.887Z,38.50
2023-03-17T06:30:40.381Z,34.42
2023-03-17T06:33:08.271Z,48.65
2023-03-17T06:35:36.299Z,40.40
2023-03-17T06:38:03.808Z,32.75
2023-03-17T06:40:32.139Z,31.83
2023-03-17T06:42:59.556Z,30.02
2023-03-17T06:45:26.851Z,37.95
2023-03-17T06:47:54.129Z,30.80
2023-03-17T06:50:21.433Z,28.88
2023-03-17T06:52:48.256Z,28.65
2023-03-17T06:55:15.901Z,29.90
2023-03-17T06:57:43.287Z,30.15
2023-03-17T07:00:12.686Z,29.92
2023-03-17T07:02:39.870Z,29.75
2023-03-17T07:05:08.181Z,30.52
2023-03-17T07:07:35.689Z,29.95
2023-03-17T07:10:04.246Z,27.50
2023-03-17T07:12:31.566Z,26.02
2023-03-17T07:14:59.086Z,23.95
2023-03-17T07:17:26.167Z,24.70
2023-03-17T07:19:53.462Z,19.33
2023-03-17T07:22:20.517Z,17.40
2023-03-17T07:24:49.241Z,18.80
2023-03-17T07:27:16.972Z,16.17
2023-03-17T07:29:44.378Z,11.38
2023-03-17T07:32:11.402Z,14.63
2023-03-17T07:34:38.265Z,14.40
2023-03-17T07:37:06.996Z,13.85
2023-03-17T07:39:34.373Z,13.27
2023-03-17T07:42:01.557Z,13.90
2023-03-17T07:44:28.941Z,12.32
2023-03-17T07:46:56.678Z,13.23
2023-03-17T07:49:40.033Z,14.52
2023-03-17T07:52:08.603Z,12.52
2023-03-17T07:54:37.059Z,9.55
2023-03-17T07:57:04.574Z,9.85
2023-03-17T07:59:31.767Z,44.05
2023-03-17T08:02:01.414Z,9.48
2023-03-17T08:04:29.281Z,7.68
2023-03-17T08:06:57.266Z,5.72
2023-03-17T08:09:24.385Z,7.90
2023-03-17T08:11:51.653Z,7.20
2023-03-17T08:14:18.934Z,7.13
2023-03-17T08:16:46.022Z,7.53
2023-03-17T08:19:13.354Z,7.85
2023-03-17T08:21:40.967Z,6.65
2023-03-17T08:24:08.501Z,6.35
2023-03-17T08:26:36.264Z,6.88
2023-03-17T08:29:05.151Z,6.60
2023-03-17T08:31:34.138Z,6.32
2023-03-17T08:34:02.701Z,7.28
2023-03-17T08:36:29.961Z,7.40
2023-03-17T08:38:57.224Z,9.73
2023-03-17T08:41:26.958Z,5.50
2023-03-17T08:43:54.915Z,5.75
2023-03-17T08:46:30.095Z,5.75
2023-03-17T08:48:58.155Z,6.38
2023-03-17T08:51:27.235Z,5.72
2023-03-17T08:53:55.071Z,5.00
2023-03-17T08:56:22.749Z,45.47
2023-03-17T08:58:50.777Z,4.93
2023-03-17T09:01:19.109Z,4.25
2023-03-17T09:03:46.817Z,4.20
2023-03-17T09:06:14.401Z,4.85
2023-03-17T09:08:45.161Z,4.85
2023-03-17T09:11:14.919Z,5.03
2023-03-17T09:13:42.154Z,4.90
2023-03-17T09:16:10.982Z,4.63
2023-03-17T09:18:38.279Z,4.90
2023-03-17T09:21:05.955Z,5.63
2023-03-17T09:23:34.496Z,5.63
2023-03-17T09:26:02.323Z,5.72
2023-03-17T09:28:29.616Z,5.82
2023-03-17T09:31:03.761Z,7.03
2023-03-17T09:33:31.099Z,7.75
2023-03-17T09:35:58.027Z,5.32
2023-03-17T09:38:26.428Z,34.92
2023-03-17T09:40:53.670Z,5.60
2023-03-17T09:43:41.794Z,5.78
2023-03-17T09:46:43.788Z,4.60
2023-03-17T09:49:21.168Z,4.75
2023-03-17T09:51:49.503Z,4.60
2023-03-17T09:54:18.478Z,5.15
2023-03-17T09:56:51.388Z,4.55
2023-03-17T09:59:34.929Z,4.38
2023-03-17T10:02:02.419Z,5.95
2023-03-17T10:04:29.708Z,4.97
2023-03-17T10:07:07.034Z,13.10
2023-03-17T10:09:43.101Z,30.52
2023-03-17T10:12:24.793Z,5.22
2023-03-17T10:15:04.635Z,3.97
2023-03-17T10:17:40.767Z,14.95
2023-03-17T10:20:09.190Z,5.60
2023-03-17T10:23:01.111Z,6.50
2023-03-17T10:25:34.011Z,5.45
2023-03-17T10:30:39.837Z,4.75
2023-03-17T10:33:07.799Z,4.20
2023-03-17T10:35:37.574Z,4.22
2023-03-17T10:38:20.303Z,7.00
2023-03-17T10:40:58.287Z,5.05
2023-03-17T10:43:30.554Z,4.57
2023-03-17T10:46:04.013Z,4.70
2023-03-17T10:48:36.101Z,14.70
2023-03-17T10:51:09.919Z,6.20
2023-03-17T10:53:43.031Z,4.50
2023-03-17T10:58:55.598Z,12.15
2023-03-17T11:01:36.594Z,4.63
2023-03-17T11:04:03.989Z,5.05
2023-03-17T11:06:41.486Z,4.53
2023-03-17T11:09:11.069Z,3.58
2023-03-17T11:11:47.627Z,3.97
2023-03-17T11:14:18.689Z,4.10
2023-03-17T11:17:01.638Z,3.60
2023-03-17T11:19:28.851Z,4.78
2023-03-17T11:22:00.159Z,6.07
2023-03-17T11:24:33.629Z,4.90
2023-03-17T11:27:07.212Z,4.88
2023-03-17T11:29:52.583Z,3.30
2023-03-17T11:32:20.207Z,5.22
2023-03-17T11:34:47.840Z,3.30
2023-03-17T11:37:26.412Z,3.20
2023-03-17T11:39:56.573Z,4.53
2023-03-17T11:42:25.966Z,3.67
2023-03-17T11:45:13.190Z,4.60
2023-03-17T11:47:54.948Z,3.38
2023-03-17T11:50:22.360Z,3.70
2023-03-17T11:53:06.525Z,3.08
2023-03-17T11:55:36.394Z,2.53
2023-03-17T11:58:10.609Z,4.85
2023-03-17T12:00:45.881Z,3.03
2023-03-17T12:03:21.665Z,3.72
2023-03-17T12:05:52.492Z,5.38
2023-03-17T12:08:42.280Z,3.55
2023-03-17T12:11:17.198Z,3.17
2023-03-17T12:14:05.226Z,3.00
2023-03-17T12:16:48.125Z,3.83
2023-03-17T12:19:29.882Z,19.20
2023-03-17T12:22:05.698Z,5.22
2023-03-17T12:24:32.861Z,3.17
2023-03-17T12:27:01.918Z,4.80
2023-03-17T12:29:51.609Z,4.60
2023-03-17T12:32:55.695Z,3.95
2023-03-17T12:35:32.228Z,3.50
2023-03-17T12:38:02.789Z,4.13
2023-03-17T12:40:35.871Z,3.58
2023-03-17T12:45:50.858Z,3.70
2023-03-17T12:48:32.964Z,3.30
2023-03-17T12:51:31.432Z,3.40
2023-03-17T12:54:00.220Z,6.32
2023-03-17T12:56:34.681Z,3.35
2023-03-17T12:59:05.808Z,3.90
2023-03-17T13:01:54.351Z,3.38
2023-03-17T13:04:40.997Z,5.40
2023-03-17T13:07:22.194Z,9.40
2023-03-17T13:09:49.847Z,3.95
2023-03-17T13:12:44.515Z,3.00
2023-03-17T13:15:23.589Z,3.40
2023-03-17T13:18:10.803Z,3.58
2023-03-17T13:20:41.925Z,3.40
2023-03-17T13:23:16.071Z,3.85
2023-03-17T13:25:45.468Z,4.03
2023-03-17T13:28:12.327Z,3.80
2023-03-17T13:30:40.002Z,2.55
2023-03-17T13:33:09.795Z,4.13
2023-03-17T13:35:42.959Z,3.65
2023-03-17T13:38:46.776Z,3.60
2023-03-17T13:44:01.737Z,3.63
2023-03-17T13:46:39.195Z,3.90
2023-03-17T13:49:28.591Z,3.90
2023-03-17T13:52:01.694Z,2.90
2023-03-17T13:54:29.122Z,5.70
2023-03-17T13:57:20.312Z,3.72
2023-03-17T14:00:21.124Z,4.40
2023-03-17T14:02:49.971Z,4.18
2023-03-17T14:05:24.937Z,3.83
2023-03-17T14:07:58.841Z,4.22
2023-03-17T14:10:29.124Z,4.20
2023-03-17T14:13:07.089Z,3.95
2023-03-17T14:16:08.100Z,4.05
2023-03-17T14:18:38.886Z,4.28
2023-03-17T14:21:11.736Z,5.10
2023-03-17T14:23:38.657Z,5.38
2023-03-17T14:26:07.746Z,4.50
2023-03-17T14:28:35.588Z,4.38
2023-03-17T14:31:05.550Z,4.47
2023-03-17T14:33:38.348Z,5.00
2023-03-17T14:36:08.883Z,6.30
2023-03-17T14:38:46.085Z,5.32
2023-03-17T14:41:22.712Z,5.65
2023-03-17T14:43:52.328Z,5.45
2023-03-17T14:46:30.044Z,4.75
2023-03-17T14:49:20.972Z,5.60
2023-03-17T14:51:57.299Z,5.55
2023-03-17T14:54:28.782Z,4.97
2023-03-17T14:57:02.148Z,4.95
2023-03-17T14:59:38.814Z,4.70
2023-03-17T15:02:21.776Z,5.38
2023-03-17T15:05:03.214Z,5.82
2023-03-17T15:07:39.932Z,5.80
2023-03-17T15:10:17.585Z,4.35
2023-03-17T15:12:48.905Z,4.18
2023-03-17T15:15:32.525Z,5.05
2023-03-17T15:18:03.836Z,7.03
2023-03-17T15:20:31.917Z,6.57
2023-03-17T15:23:03.230Z,6.90
2023-03-17T15:25:33.149Z,5.60
2023-03-17T15:28:00.277Z,5.32
2023-03-17T15:30:37.367Z,5.03
2023-03-17T15:33:16.940Z,5.15
2023-03-17T15:35:44.493Z,4.90
2023-03-17T15:38:12.219Z,4.82
2023-03-17T15:40:39.482Z,4.55
2023-03-17T15:43:06.805Z,4.53
2023-03-17T15:45:34.043Z,5.25
2023-03-17T15:48:01.316Z,5.85
2023-03-17T15:50:31.464Z,4.65
2023-03-17T15:52:59.124Z,6.10
2023-03-17T15:55:31.411Z,5.30
2023-03-17T15:57:59.407Z,6.77
2023-03-17T16:00:29.712Z,6.90
2023-03-17T16:03:02.193Z,5.88
2023-03-17T16:05:34.379Z,5.88
2023-03-17T16:08:01.948Z,7.05
2023-03-17T16:10:30.890Z,5.93
2023-03-17T16:12:58.654Z,5.05
2023-03-17T16:15:28.402Z,6.07
2023-03-17T16:17:56.711Z,6.47
2023-03-17T16:20:28.366Z,7.43
2023-03-17T16:22:57.112Z,6.95
2023-03-17T16:25:28.004Z,7.20
2023-03-17T16:27:56.154Z,7.22
2023-03-17T16:30:27.547Z,7.38
2023-03-17T16:32:55.335Z,8.10
2023-03-17T16:35:23.445Z,7.60
2023-03-17T16:37:59.799Z,37.33
2023-03-17T16:40:50.216Z,10.50
2023-03-17T16:43:33.173Z,7.45
2023-03-17T16:46:02.675Z,9.27
2023-03-17T16:48:31.156Z,9.80
2023-03-17T16:50:58.902Z,9.55
2023-03-17T16:53:26.960Z,8.48
2023-03-17T16:55:55.144Z,9.95
2023-03-17T16:58:24.102Z,10.40
2023-03-17T17:00:52.872Z,9.30
2023-03-17T17:03:20.300Z,9.13
2023-03-17T17:05:47.722Z,12.77
2023-03-17T17:08:15.099Z,11.13
2023-03-17T17:10:42.302Z,11.23
2023-03-17T17:13:10.379Z,12.55
2023-03-17T17:15:38.458Z,11.65
2023-03-17T17:18:11.396Z,11.55
2023-03-17T17:20:39.518Z,12.75
2023-03-17T17:23:11.022Z,21.25
2023-03-17T17:25:38.250Z,13.13
2023-03-17T17:28:05.676Z,12.02
2023-03-17T17:30:33.484Z,10.73
2023-03-17T17:33:01.535Z,14.27
2023-03-17T17:35:32.401Z,11.52
2023-03-17T17:38:01.052Z,13.65
2023-03-17T17:40:28.830Z,13.20
2023-03-17T17:42:55.710Z,13.18
2023-03-17T17:45:22.579Z,12.00
2023-03-17T17:47:50.108Z,13.45
2023-03-17T17:50:24.394Z,13.80
2023-03-17T17:52:51.386Z,13.02
2023-03-17T17:55:18.615Z,11.95
2023-03-17T17:57:45.623Z,12.77
2023-03-17T18:00:15.458Z,12.73
2023-03-17T18:02:42.684Z,12.48
2023-03-17T18:05:10.206Z,12.95
2023-03-17T18:07:37.086Z,12.35
2023-03-17T18:10:05.230Z,12.38
2023-03-17T18:12:32.650Z,12.27
2023-03-17T18:14:59.876Z,15.80
2023-03-17T18:17:27.330Z,13.13
2023-03-17T18:19:55.010Z,13.15
2023-03-17T18:22:22.644Z,12.65
2023-03-17T18:24:49.982Z,12.43
2023-03-17T18:27:17.380Z,11.77
2023-03-17T18:29:44.947Z,9.60
2023-03-17T18:32:12.628Z,11.75
2023-03-17T18:34:45.956Z,12.98
2023-03-17T18:39:41.954Z,12.18
2023-03-17T18:42:09.370Z,13.75
2023-03-17T18:44:36.903Z,11.68
2023-03-17T18:47:04.044Z,12.60
2023-03-17T18:49:31.308Z,13.30
2023-03-17T18:51:59.591Z,13.27
2023-03-17T18:54:28.070Z,13.43
2023-03-17T18:56:55.989Z,14.18
2023-03-17T18:59:22.901Z,15.27
2023-03-17T19:01:49.762Z,10.57
2023-03-17T19:04:17.029Z,14.48
2023-03-17T19:06:43.892Z,12.63
2023-03-17T19:09:11.108Z,13.52
2023-03-17T19:11:39.427Z,11.85
2023-03-17T19:14:08.380Z,51.50
2023-03-17T19:16:35.851Z,14.85
2023-03-17T19:19:03.180Z,11.18
2023-03-17T19:21:31.052Z,10.98
2023-03-17T19:24:00.687Z,12.82
2023-03-17T19:26:27.772Z,6.95
2023-03-17T19:28:56.330Z,13.23
2023-03-17T19:31:24.849Z,13.30
2023-03-17T19:33:52.041Z,14.98
2023-03-17T19:36:19.898Z,11.60
2023-03-17T19:38:47.241Z,12.07
2023-03-17T19:41:15.788Z,14.35
2023-03-17T19:43:43.053Z,9.93
2023-03-17T19:46:11.979Z,14.95
2023-03-17T19:48:39.782Z,14.05
2023-03-17T19:51:08.084Z,12.05
2023-03-17T19:53:35.276Z,10.15
2023-03-17T19:56:02.647Z,11.48
2023-03-17T19:58:29.984Z,11.40
2023-03-17T20:00:56.831Z,9.43
2023-03-17T20:03:26.067Z,11.23
2023-03-17T20:05:53.735Z,10.68
2023-03-17T20:08:22.487Z,12.85
2023-03-17T20:10:55.723Z,9.35
2023-03-17T20:15:51.475Z,12.35
2023-03-17T20:18:19.755Z,9.65
2023-03-17T20:20:51.221Z,8.90
2023-03-17T20:23:18.446Z,7.57
2023-03-17T20:25:45.761Z,11.00
2023-03-17T20:28:13.105Z,9.90
2023-03-17T20:30:40.727Z,11.00
2023-03-17T20:33:09.861Z,10.48
2023-03-17T20:35:39.444Z,12.00
2023-03-17T20:38:07.492Z,12.40
2023-03-17T20:40:35.397Z,9.70
2023-03-17T20:43:02.613Z,10.38
2023-03-17T20:45:30.160Z,12.68
2023-03-17T20:47:57.493Z,11.68
2023-03-17T20:50:24.960Z,7.45
2023-03-17T20:52:52.477Z,12.65
2023-03-17T20:55:20.245Z,10.68
2023-03-17T20:57:49.390Z,11.13
2023-03-17T21:00:20.512Z,26.80
2023-03-17T21:02:50.233Z,13.43
2023-03-17T21:05:20.734Z,8.70
2023-03-17T21:07:49.078Z,8.88
2023-03-17T21:10:17.434Z,15.23
2023-03-17T21:12:45.022Z,10.40
2023-03-17T21:15:13.014Z,9.00
2023-03-17T21:17:42.203Z,9.43
2023-03-17T21:20:12.086Z,9.85
2023-03-17T21:22:40.011Z,13.85
2023-03-17T21:25:08.920Z,10.93
2023-03-17T21:27:40.372Z,9.68
2023-03-17T21:30:12.076Z,9.75
2023-03-17T21:32:39.668Z,11.70
2023-03-17T21:35:08.027Z,7.65
2023-03-17T21:37:35.279Z,10.13
2023-03-17T21:40:03.384Z,11.18
2023-03-17T21:42:30.677Z,11.95
2023-03-17T21:44:57.906Z,12.52
2023-03-17T21:47:25.152Z,10.35
2023-03-17T21:49:52.382Z,6.65
2023-03-17T21:52:20.919Z,11.95
2023-03-17T21:54:47.869Z,10.80
2023-03-17T21:57:14.710Z,12.02
2023-03-17T21:59:42.347Z,12.50
2023-03-17T22:02:12.467Z,9.57
2023-03-17T22:04:39.744Z,9.75
2023-03-17T22:07:07.076Z,12.10
2023-03-17T22:09:34.330Z,9.07
2023-03-17T22:12:01.793Z,10.68
2023-03-17T22:14:29.195Z,25.50
2023-03-17T22:16:57.216Z,8.25
2023-03-17T22:19:26.110Z,20.35
2023-03-17T22:21:53.741Z,8.20
2023-03-17T22:24:21.636Z,10.48
2023-03-17T22:26:49.604Z,6.82
2023-03-17T22:29:16.837Z,10.82
2023-03-17T22:31:43.788Z,9.85
2023-03-17T22:34:10.826Z,10.13
2023-03-17T22:36:38.004Z,6.80
2023-03-17T22:39:06.961Z,9.77
2023-03-17T22:41:34.315Z,10.30
2023-03-17T22:44:01.108Z,10.13
2023-03-17T22:46:28.549Z,12.90
2023-03-17T22:48:55.474Z,9.88
2023-03-17T22:51:27.010Z,8.50
2023-03-17T22:53:54.294Z,11.98
2023-03-17T22:56:21.572Z,10.35
2023-03-17T22:58:49.176Z,12.32
2023-03-17T23:01:17.217Z,8.82
2023-03-17T23:03:44.911Z,10.15
2023-03-17T23:06:13.268Z,61.22
2023-03-17T23:08:42.783Z,18.67
2023-03-17T23:11:23.171Z,11.80
2023-03-17T23:13:51.399Z,10.73
2023-03-17T23:16:19.034Z,10.82
2023-03-17T23:18:47.145Z,12.27
2023-03-17T23:21:33.038Z,8.50
2023-03-17T23:24:00.723Z,19.67
2023-03-17T23:26:28.393Z,10.35
2023-03-17T23:28:55.862Z,9.20
2023-03-17T23:31:23.396Z,11.38
2023-03-17T23:33:51.298Z,12.20
2023-03-17T23:36:21.996Z,16.58
2023-03-17T23:38:50.305Z,12.25
2023-03-17T23:41:18.466Z,9.25
2023-03-17T23:43:46.722Z,9.70
2023-03-17T23:46:14.804Z,11.30
2023-03-17T23:48:42.962Z,13.57
2023-03-17T23:51:12.128Z,9.90
2023-03-17T23:53:39.764Z,10.35
2023-03-17T23:56:11.446Z,11.02
2023-03-17T23:58:39.285Z,10.55
